Tampa, FL

10:47 PM EDT on Ιούλιος 27, 2016 (GMT -0400)
MacDill Air Force Base | | Change Station

Elev 13 ft 27.85 °N, 82.52 °W | Updated 49 minutes ago

Clear
Αίθριος
81 ° F
Feels Like 90 ° F
N
4
Ανεμος Μεταβλητός Ανεμος from ΒΔ

Σήμερα
High -- | Low -- ° F
--% Chance of Precip.
Yesterday
High -- | Low -- ° F
Precip. -- in
Ατμοσφαιρική Πίεση 30.06 in
Ορατότητα 10.0 Μίλια
Σύννεφα Αίθριος
Δείκτης Δυσφορίας 90 ° F
Σημείο Δρόσου 80 ° F
Υγρασία 96%
Rainfall 0.07 in
Snow Depth Not available.
6:50 AM 8:22 PM
Τελευταίο τέταρτο, 37% visible
METAR KMCF 280158Z AUTO 31003KT 10SM CLR 27/27 A3005 RMK AO2 SLP179 T02730266
Ατμοσφαιρική Πίεση 30.06 in
Ορατότητα 10.0 Μίλια
Σύννεφα Αίθριος
Δείκτης Δυσφορίας 90 ° F
Σημείο Δρόσου 80 ° F
Υγρασία 96%
Rainfall 0.07 in
Snow Depth Not available.
6:50 AM 8:22 PM
Τελευταίο τέταρτο, 37% visible
METAR KMCF 280158Z AUTO 31003KT 10SM CLR 27/27 A3005 RMK AO2 SLP179 T02730266

10-Day Weather Forecast

Almanac

Αστρονομία

Jul. 27, 2016 Rise Set
Actual Time
Civil Twilight
Nautical Twilight
Astronomical Twilight
Moon
Length Of Visible Light
Διάρκεια ημέρας
Tomorrow will be .
, % of the Moon is Illuminated

Today's Extremes

State Highs State Lows

Community

WunderPhotos

Upload Photos

1,928,022 photos uploaded!

WunderBlog® & News

Nearby

Air Quality

  Air Quality AQ Index Pollutant
Not available.

Snow Depth

Station Depth Elevation

Earthquake Activity

City Distance Mag. Time & Date
Minimum magnitude displayed is 2.5.

Coastal Water Temperatures

Τοποθεσία Θερμοκρασία

Stations

Nearby Weather Stations

Station Location Temp Δείκτης Ψυχρότητας Σημείο Δρόσου Υγρασία Ανεμος Precip. Elev Ενημερώθηκε Type
                   

Watches & Warnings

There are currently no watches in effect.